createdAt,value
2022-09-11T00:01:15.999Z,94829.28
2022-09-11T00:03:45.727Z,94809.25
2022-09-11T00:06:27.420Z,94810.38
2022-09-11T00:09:00.650Z,94818.38
2022-09-11T00:11:30.626Z,94828.19
2022-09-11T00:13:58.284Z,94771.72
2022-09-11T00:16:31.017Z,94799.88
2022-09-11T00:18:59.807Z,94813.34
2022-09-11T00:21:27.379Z,94815.59
2022-09-11T00:23:54.138Z,94771.38
2022-09-11T00:26:22.034Z,94794.25
2022-09-11T00:28:50.703Z,94762.06
2022-09-11T00:31:20.225Z,94797.66
2022-09-11T00:33:47.163Z,94792.47
2022-09-11T00:36:17.237Z,94795.09
2022-09-11T00:38:45.774Z,94782.41
2022-09-11T00:41:38.277Z,94793.13
2022-09-11T00:44:09.045Z,94778.63
2022-09-11T00:46:44.739Z,94764.00
2022-09-11T00:49:32.626Z,94755.81
2022-09-11T00:52:17.879Z,94738.78
2022-09-11T00:54:46.919Z,94763.22
2022-09-11T00:57:13.886Z,94773.34
2022-09-11T00:59:44.038Z,94790.47
2022-09-11T01:02:15.268Z,94777.66
2022-09-11T01:04:42.019Z,94776.00
2022-09-11T01:07:11.019Z,94757.78
2022-09-11T01:09:37.898Z,94774.91
2022-09-11T01:12:18.591Z,94773.38
2022-09-11T01:15:01.310Z,94766.75
2022-09-11T01:17:34.022Z,94795.47
2022-09-11T01:20:19.319Z,94745.25
2022-09-11T01:23:08.059Z,94756.94
2022-09-11T01:26:02.750Z,94747.16
2022-09-11T01:28:44.217Z,94706.94
2022-09-11T01:31:17.123Z,94736.72
2022-09-11T01:33:50.986Z,94761.59
2022-09-11T01:36:22.373Z,94780.00
2022-09-11T01:38:59.172Z,94776.50
2022-09-11T01:41:36.927Z,94762.03
2022-09-11T01:44:10.510Z,94739.03
2022-09-11T01:46:46.180Z,94769.84
2022-09-11T01:49:33.917Z,94743.06
2022-09-11T01:52:03.432Z,94778.75
2022-09-11T01:54:42.314Z,94768.31
2022-09-11T01:57:25.564Z,94776.84
2022-09-11T01:59:58.957Z,94732.41
2022-09-11T02:02:33.344Z,94734.16
2022-09-11T02:05:09.384Z,94770.22
2022-09-11T02:07:45.789Z,94757.38
2022-09-11T02:10:20.133Z,94761.63
2022-09-11T02:12:53.499Z,94747.22
2022-09-11T02:15:23.298Z,94743.59
2022-09-11T02:18:20.098Z,94764.72
2022-09-11T02:20:47.675Z,94757.78
2022-09-11T02:23:17.731Z,94741.31
2022-09-11T02:25:44.619Z,94789.63
2022-09-11T02:28:12.161Z,94744.84
2022-09-11T02:30:42.933Z,94746.03
2022-09-11T02:33:29.347Z,94747.16
2022-09-11T02:36:19.372Z,94745.63
2022-09-11T02:38:59.564Z,94762.84
2022-09-11T02:41:46.521Z,94771.72
2022-09-11T02:44:38.020Z,94746.09
2022-09-11T02:47:15.055Z,94728.75
2022-09-11T02:49:51.542Z,94767.06
2022-09-11T02:52:54.622Z,94767.91
2022-09-11T02:55:33.223Z,94772.72
2022-09-11T02:58:15.789Z,94716.69
2022-09-11T03:00:44.417Z,94777.47
2022-09-11T03:03:11.353Z,94733.94
2022-09-11T03:05:40.296Z,94750.75
2022-09-11T03:08:07.770Z,94739.81
2022-09-11T03:10:34.781Z,94724.03
2022-09-11T03:13:01.643Z,94747.63
2022-09-11T03:15:31.741Z,94743.34
2022-09-11T03:17:58.546Z,94727.00
2022-09-11T03:20:25.343Z,94726.47
2022-09-11T03:22:52.081Z,94736.28
2022-09-11T03:25:18.802Z,94705.78
2022-09-11T03:27:47.287Z,94713.56
2022-09-11T03:30:14.264Z,94743.28
2022-09-11T03:32:41.094Z,94738.22
2022-09-11T03:35:08.200Z,94736.13
2022-09-11T03:37:37.339Z,94709.16
2022-09-11T03:40:04.931Z,94727.69
2022-09-11T03:42:33.422Z,94719.59
2022-09-11T03:45:00.505Z,94749.50
2022-09-11T03:47:27.444Z,94691.00
2022-09-11T03:49:56.070Z,94771.81
2022-09-11T03:52:23.139Z,94746.34
2022-09-11T03:54:50.393Z,94746.97
2022-09-11T03:57:17.251Z,94760.50
2022-09-11T03:59:44.008Z,94728.81
2022-09-11T04:02:10.768Z,94752.66
2022-09-11T04:04:37.509Z,94726.19
2022-09-11T04:07:05.107Z,94736.66
2022-09-11T04:09:32.572Z,94761.69
2022-09-11T04:11:59.383Z,94744.69
2022-09-11T04:14:28.787Z,94755.75
2022-09-11T04:16:57.933Z,94730.59
2022-09-11T04:19:25.673Z,94737.81
2022-09-11T04:21:53.477Z,94744.69
2022-09-11T04:24:21.287Z,94730.44
2022-09-11T04:26:48.149Z,94747.84
2022-09-11T04:29:22.589Z,94722.56
2022-09-11T04:31:51.335Z,94741.03
2022-09-11T04:34:18.442Z,94738.94
2022-09-11T04:36:45.246Z,94724.72
2022-09-11T04:39:15.674Z,94742.84
2022-09-11T04:41:44.459Z,94741.50
2022-09-11T04:44:11.307Z,94719.31
2022-09-11T04:46:42.965Z,94722.41
2022-09-11T04:49:11.542Z,94763.59
2022-09-11T04:51:42.228Z,94728.16
2022-09-11T04:54:18.009Z,94704.19
2022-09-11T04:56:45.659Z,94778.03
2022-09-11T04:59:16.386Z,94752.19
2022-09-11T05:01:52.223Z,94745.84
2022-09-11T05:04:22.902Z,94768.31
2022-09-11T05:06:52.262Z,94747.81
2022-09-11T05:09:20.054Z,94703.00
2022-09-11T05:11:48.210Z,94749.72
2022-09-11T05:14:16.140Z,94765.56
2022-09-11T05:16:46.110Z,94763.22
2022-09-11T05:19:15.597Z,94736.13
2022-09-11T05:21:44.493Z,94774.16
2022-09-11T05:24:11.623Z,94722.19
2022-09-11T05:26:40.654Z,94746.94
2022-09-11T05:29:14.040Z,94763.22
2022-09-11T05:31:48.477Z,94774.56
2022-09-11T05:34:18.630Z,94695.78
2022-09-11T05:36:45.932Z,94773.31
2022-09-11T05:39:12.822Z,94758.94
2022-09-11T05:41:40.202Z,94734.59
2022-09-11T05:44:07.490Z,94720.00
2022-09-11T05:46:36.710Z,94774.53
2022-09-11T05:49:03.832Z,94763.47
2022-09-11T05:51:30.698Z,94786.53
2022-09-11T05:53:58.889Z,94781.16
2022-09-11T05:56:28.298Z,94779.97
2022-09-11T05:58:59.402Z,94781.34
2022-09-11T06:01:34.436Z,94795.22
2022-09-11T06:04:11.390Z,94807.25
2022-09-11T06:06:40.101Z,94811.53
2022-09-11T06:09:07.682Z,94775.91
2022-09-11T06:11:35.079Z,94809.84
2022-09-11T06:14:02.635Z,94757.41
2022-09-11T06:16:31.535Z,94771.88
2022-09-11T06:19:05.775Z,94814.91
2022-09-11T06:21:32.555Z,94817.50
2022-09-11T06:24:06.122Z,94780.56
2022-09-11T06:26:35.475Z,94787.03
2022-09-11T06:29:03.108Z,94823.22
2022-09-11T06:31:30.915Z,94791.31
2022-09-11T06:33:58.235Z,94793.25
2022-09-11T06:36:35.403Z,94754.91
2022-09-11T06:39:06.930Z,94786.72
2022-09-11T06:41:35.125Z,94812.75
2022-09-11T06:44:07.220Z,94797.44
2022-09-11T06:46:35.413Z,94788.78
2022-09-11T06:49:02.793Z,94795.25
2022-09-11T06:51:30.450Z,94832.66
2022-09-11T06:54:02.383Z,94809.94
2022-09-11T06:56:33.333Z,94819.38
2022-09-11T06:59:01.116Z,94803.41
2022-09-11T07:01:29.461Z,94780.50
2022-09-11T07:04:02.684Z,94819.31
2022-09-11T07:06:32.062Z,94775.72
2022-09-11T07:09:02.626Z,94802.16
2022-09-11T07:11:51.748Z,94816.66
2022-09-11T07:14:23.380Z,94814.72
2022-09-11T07:16:55.907Z,94797.72
2022-09-11T07:19:25.540Z,94821.34
2022-09-11T07:21:52.228Z,94807.03
2022-09-11T07:24:20.773Z,94833.03
2022-09-11T07:26:48.693Z,94799.66
2022-09-11T07:29:22.347Z,94819.41
2022-09-11T07:31:50.250Z,94800.59
2022-09-11T07:34:16.981Z,94822.13
2022-09-11T07:36:44.691Z,94822.06
2022-09-11T07:39:12.494Z,94841.50
2022-09-11T07:42:01.964Z,94803.91
2022-09-11T07:44:32.519Z,94822.78
2022-09-11T07:47:00.780Z,94838.41
2022-09-11T07:49:28.307Z,94852.84
2022-09-11T07:51:55.466Z,94820.66
2022-09-11T07:54:34.877Z,94850.22
2022-09-11T07:57:03.309Z,94861.91
2022-09-11T07:59:31.043Z,94858.59
2022-09-11T08:01:59.542Z,94850.19
2022-09-11T08:04:26.283Z,94833.16
2022-09-11T08:06:53.801Z,94834.97
2022-09-11T08:09:27.174Z,94829.47
2022-09-11T08:11:58.574Z,94855.25
2022-09-11T08:14:27.365Z,94878.69
2022-09-11T08:16:57.448Z,94863.09
2022-09-11T08:19:27.145Z,94878.63
2022-09-11T08:21:56.288Z,94878.69
2022-09-11T08:24:24.448Z,94881.44
2022-09-11T08:26:57.261Z,94893.28
2022-09-11T08:29:26.166Z,94898.84
2022-09-11T08:31:53.817Z,94853.13
2022-09-11T08:34:22.371Z,94901.88
2022-09-11T08:36:50.709Z,94882.28
2022-09-11T08:39:17.567Z,94879.84
2022-09-11T08:42:08.969Z,94873.59
2022-09-11T08:44:51.420Z,94876.38
2022-09-11T08:47:46.085Z,94883.75
2022-09-11T08:50:26.855Z,94868.19
2022-09-11T08:52:55.439Z,94910.50
2022-09-11T08:55:40.403Z,94906.00
2022-09-11T08:58:12.663Z,94868.03
2022-09-11T09:01:07.143Z,94865.06
2022-09-11T09:03:43.585Z,94898.50
2022-09-11T09:06:17.006Z,94897.72
2022-09-11T09:09:00.796Z,94885.72
2022-09-11T09:11:42.552Z,94866.56
2022-09-11T09:14:40.157Z,94891.59
2022-09-11T09:17:09.051Z,94909.50
2022-09-11T09:19:47.951Z,94907.16
2022-09-11T09:23:06.355Z,94873.19
2022-09-11T09:25:40.118Z,94896.22
2022-09-11T09:28:11.612Z,94919.13
2022-09-11T09:31:03.923Z,94927.50
2022-09-11T09:33:52.688Z,94901.22
2022-09-11T09:36:24.965Z,94931.19
2022-09-11T09:38:53.868Z,94921.06
2022-09-11T09:41:43.656Z,94915.91
2022-09-11T09:44:42.993Z,94879.38
2022-09-11T09:47:14.544Z,94913.09
2022-09-11T09:49:43.346Z,94928.06
2022-09-11T09:52:25.308Z,94926.81
2022-09-11T09:55:00.151Z,94924.97
2022-09-11T09:57:37.253Z,94913.25
2022-09-11T10:00:10.013Z,94909.22
2022-09-11T10:02:53.891Z,94870.03
2022-09-11T10:05:34.842Z,94915.91
2022-09-11T10:08:04.717Z,94914.00
2022-09-11T10:10:38.236Z,94911.84
2022-09-11T10:13:20.974Z,94909.63
2022-09-11T10:16:02.296Z,94893.13
2022-09-11T10:18:29.275Z,94950.44
2022-09-11T10:21:24.234Z,94937.09
2022-09-11T10:23:57.122Z,94899.84
2022-09-11T10:26:30.207Z,94930.50
2022-09-11T10:29:08.211Z,94933.06
2022-09-11T10:31:39.287Z,94865.72
2022-09-11T10:34:07.538Z,94906.63
2022-09-11T10:36:35.169Z,94914.06
2022-09-11T10:39:02.539Z,94914.75
2022-09-11T10:41:34.303Z,94920.72
2022-09-11T10:44:11.159Z,94939.56
2022-09-11T10:46:39.814Z,94910.75
2022-09-11T10:49:06.514Z,94925.06
2022-09-11T10:51:39.070Z,94940.91
2022-09-11T10:54:34.615Z,94913.78
2022-09-11T10:57:01.589Z,94893.69
2022-09-11T10:59:58.390Z,94913.53
2022-09-11T11:02:29.707Z,94941.25
2022-09-11T11:05:00.245Z,94917.25
2022-09-11T11:07:53.817Z,94923.31
2022-09-11T11:10:31.177Z,94926.94
2022-09-11T11:13:08.107Z,94937.75
2022-09-11T11:15:41.448Z,94942.31
2022-09-11T11:18:35.766Z,94903.50
2022-09-11T11:21:29.969Z,94907.19
2022-09-11T11:24:22.353Z,94948.38
2022-09-11T11:26:49.283Z,94956.53
2022-09-11T11:29:50.672Z,94925.94
2022-09-11T11:32:27.985Z,94954.94
2022-09-11T11:35:01.283Z,94953.44
2022-09-11T11:37:39.442Z,94969.41
2022-09-11T11:40:56.909Z,94961.59
2022-09-11T11:43:28.986Z,94937.59
2022-09-11T11:46:05.325Z,94935.97
2022-09-11T11:48:39.634Z,94950.16
2022-09-11T11:51:15.340Z,94938.94
2022-09-11T11:53:55.476Z,94959.09
2022-09-11T11:56:33.276Z,94922.34
2022-09-11T11:59:12.894Z,94999.03
2022-09-11T12:02:03.430Z,94948.81
2022-09-11T12:04:43.862Z,94952.38
2022-09-11T12:07:30.461Z,94947.09
2022-09-11T12:10:00.182Z,94959.72
2022-09-11T12:12:31.261Z,94983.25
2022-09-11T12:15:07.727Z,94957.75
2022-09-11T12:17:40.225Z,94966.53
2022-09-11T12:20:10.102Z,94950.59
2022-09-11T12:22:42.626Z,94952.03
2022-09-11T12:25:21.626Z,94954.00
2022-09-11T12:27:52.795Z,94917.09
2022-09-11T12:30:20.615Z,94952.97
2022-09-11T12:33:01.332Z,94978.75
2022-09-11T12:35:32.990Z,94995.06
2022-09-11T12:38:14.966Z,94978.13
2022-09-11T12:40:59.888Z,94975.19
2022-09-11T12:43:30.785Z,94957.22
2022-09-11T12:45:57.778Z,94963.16
2022-09-11T12:49:21.708Z,95001.97
2022-09-11T12:51:55.993Z,94958.56
2022-09-11T12:54:31.640Z,94970.72
2022-09-11T12:57:03.027Z,94969.72
2022-09-11T12:59:43.784Z,94957.38
2022-09-11T13:02:51.840Z,94950.13
2022-09-11T13:05:36.477Z,94974.03
2022-09-11T13:08:07.629Z,94918.19
2022-09-11T13:10:39.328Z,94961.50
2022-09-11T13:13:35.522Z,94947.75
2022-09-11T13:16:24.150Z,94972.81
2022-09-11T13:18:53.817Z,94959.84
2022-09-11T13:21:25.718Z,94952.41
2022-09-11T13:23:53.220Z,94968.97
2022-09-11T13:26:31.568Z,94946.94
2022-09-11T13:29:01.351Z,94948.53
2022-09-11T13:31:34.933Z,94972.47
2022-09-11T13:34:06.151Z,94985.31
2022-09-11T13:36:36.164Z,94985.03
2022-09-11T13:39:04.396Z,94964.78
2022-09-11T13:41:36.852Z,94939.78
2022-09-11T13:44:11.064Z,94941.00
2022-09-11T13:46:50.309Z,94965.78
2022-09-11T13:49:29.229Z,94973.47
2022-09-11T13:51:56.365Z,94951.47
2022-09-11T13:54:38.484Z,94962.47
2022-09-11T13:57:13.394Z,94944.38
2022-09-11T13:59:49.340Z,94959.34
2022-09-11T14:02:34.705Z,94973.16
2022-09-11T14:05:13.852Z,94951.38
2022-09-11T14:07:57.271Z,94959.28
2022-09-11T14:10:25.638Z,94960.22
2022-09-11T14:13:23.221Z,94980.56
2022-09-11T14:15:55.569Z,94947.38
2022-09-11T14:18:28.023Z,94931.81
2022-09-11T14:20:56.409Z,94942.47
2022-09-11T14:23:28.732Z,94947.63
2022-09-11T14:26:16.559Z,94953.91
2022-09-11T14:28:50.473Z,94957.03
2022-09-11T14:31:47.024Z,94926.69
2022-09-11T14:34:18.679Z,94949.00
2022-09-11T14:36:56.477Z,94957.97
2022-09-11T14:39:36.001Z,94961.44
2022-09-11T14:42:07.161Z,94999.69
2022-09-11T14:44:35.660Z,94967.38
2022-09-11T14:47:02.544Z,94960.44
2022-09-11T14:49:29.699Z,94979.06
2022-09-11T14:51:58.858Z,94951.44
2022-09-11T14:54:31.154Z,94926.88
2022-09-11T14:57:01.246Z,94948.53
2022-09-11T14:59:30.803Z,94939.72
2022-09-11T15:01:58.717Z,94975.41
2022-09-11T15:04:25.757Z,94945.53
2022-09-11T15:06:55.841Z,94954.03
2022-09-11T15:09:24.726Z,94942.94
2022-09-11T15:11:52.444Z,94953.75
2022-09-11T15:14:44.658Z,94962.78
2022-09-11T15:17:11.074Z,94937.53
2022-09-11T15:19:38.242Z,94931.56
2022-09-11T15:22:06.992Z,94915.44
2022-09-11T15:24:34.743Z,94933.78
2022-09-11T15:27:01.450Z,94943.81
2022-09-11T15:29:31.594Z,94903.06
2022-09-11T15:31:59.836Z,94928.13
2022-09-11T15:34:27.274Z,94931.38
2022-09-11T15:36:54.169Z,94951.69
2022-09-11T15:39:21.519Z,94978.50
2022-09-11T15:41:48.230Z,94929.34
2022-09-11T15:44:23.370Z,94927.53
2022-09-11T15:46:52.381Z,94911.06
2022-09-11T15:49:21.741Z,94922.38
2022-09-11T15:51:49.519Z,94950.81
2022-09-11T15:54:16.797Z,94948.91
2022-09-11T15:56:43.817Z,94932.81
2022-09-11T15:59:12.156Z,94966.34
2022-09-11T16:01:39.484Z,94911.69
2022-09-11T16:04:12.507Z,94928.22
2022-09-11T16:06:43.114Z,94945.81
2022-09-11T16:09:14.286Z,94939.28
2022-09-11T16:11:41.452Z,94954.94
2022-09-11T16:14:15.488Z,94936.53
2022-09-11T16:16:42.243Z,94947.22
2022-09-11T16:19:09.232Z,94950.53
2022-09-11T16:21:35.971Z,94946.25
2022-09-11T16:24:04.763Z,94938.91
2022-09-11T16:26:31.723Z,94945.56
2022-09-11T16:28:58.638Z,94948.75
2022-09-11T16:31:25.641Z,94925.19
2022-09-11T16:33:55.197Z,94922.69
2022-09-11T16:36:22.599Z,94932.03
2022-09-11T16:38:50.309Z,94917.88
2022-09-11T16:41:21.945Z,94937.34
2022-09-11T16:43:51.721Z,94905.28
2022-09-11T16:46:24.289Z,94930.94
2022-09-11T16:48:54.398Z,94940.00
2022-09-11T16:51:23.494Z,94919.28
2022-09-11T16:53:50.615Z,94914.69
2022-09-11T16:56:20.173Z,94917.09
2022-09-11T16:58:47.462Z,94930.22
2022-09-11T17:01:17.132Z,94933.88
2022-09-11T17:03:46.408Z,94938.69
2022-09-11T17:06:14.623Z,94937.91
2022-09-11T17:08:43.353Z,94923.34
2022-09-11T17:11:14.386Z,94926.53
2022-09-11T17:13:43.454Z,94925.50
2022-09-11T17:16:16.416Z,94927.94
2022-09-11T17:18:49.136Z,94925.97
2022-09-11T17:21:16.448Z,94924.19
2022-09-11T17:23:43.719Z,94920.53
2022-09-11T17:26:13.490Z,94914.59
2022-09-11T17:28:41.902Z,94911.13
2022-09-11T17:31:11.280Z,94915.00
2022-09-11T17:33:40.244Z,94890.97
2022-09-11T17:36:09.993Z,94935.31
2022-09-11T17:38:38.630Z,94932.06
2022-09-11T17:41:07.485Z,94919.16
2022-09-11T17:43:36.508Z,94919.25
2022-09-11T17:46:05.701Z,94924.00
2022-09-11T17:48:33.107Z,94929.84
2022-09-11T17:51:07.275Z,94914.81
2022-09-11T17:53:38.562Z,94926.81
2022-09-11T17:56:14.626Z,94926.72
2022-09-11T17:58:42.681Z,94941.72
2022-09-11T18:01:13.657Z,94941.44
2022-09-11T18:03:43.563Z,94930.03
2022-09-11T18:06:37.236Z,94941.84
2022-09-11T18:09:16.138Z,94952.44
2022-09-11T18:11:45.218Z,94935.69
2022-09-11T18:14:13.769Z,94942.00
2022-09-11T18:16:43.697Z,94949.69
2022-09-11T18:19:12.087Z,94954.97
2022-09-11T18:21:38.904Z,94963.72
2022-09-11T18:24:06.461Z,94956.91
2022-09-11T18:26:39.868Z,94957.72
2022-09-11T18:29:10.498Z,94940.69
2022-09-11T18:31:43.155Z,94945.75
2022-09-11T18:34:18.622Z,94955.09
2022-09-11T18:36:45.442Z,94946.84
2022-09-11T18:39:14.311Z,94956.19
2022-09-11T18:41:41.211Z,94962.84
2022-09-11T18:44:15.169Z,94957.38
2022-09-11T18:46:45.963Z,94944.84
2022-09-11T18:49:16.212Z,94940.94
2022-09-11T18:51:43.693Z,94920.59
2022-09-11T18:54:16.058Z,94927.94
2022-09-11T18:56:43.429Z,94948.28
2022-09-11T18:59:12.278Z,94939.69
2022-09-11T19:01:40.033Z,94955.78
2022-09-11T19:04:10.229Z,94943.72
2022-09-11T19:06:41.267Z,94965.84
2022-09-11T19:09:10.494Z,94968.28
2022-09-11T19:11:37.986Z,94967.69
2022-09-11T19:14:07.241Z,94967.56
2022-09-11T19:16:34.966Z,94966.13
2022-09-11T19:19:02.981Z,94950.22
2022-09-11T19:21:30.243Z,94960.97
2022-09-11T19:24:00.625Z,94954.78
2022-09-11T19:26:33.361Z,94973.09
2022-09-11T19:29:00.668Z,94962.97
2022-09-11T19:31:29.895Z,94976.19
2022-09-11T19:34:00.346Z,94967.38
2022-09-11T19:36:30.032Z,94987.38
2022-09-11T19:39:00.569Z,94985.78
2022-09-11T19:41:30.425Z,94984.22
2022-09-11T19:44:03.587Z,94972.28
2022-09-11T19:46:31.896Z,94968.72
2022-09-11T19:49:02.856Z,94968.59
2022-09-11T19:51:31.854Z,94960.50
2022-09-11T19:54:00.881Z,94969.31
2022-09-11T19:56:28.857Z,94961.63
2022-09-11T19:58:55.975Z,94965.59
2022-09-11T20:01:24.733Z,94929.06
2022-09-11T20:03:53.789Z,94936.03
2022-09-11T20:06:23.277Z,94934.53
2022-09-11T20:08:59.170Z,94943.44
2022-09-11T20:11:38.470Z,94944.63
2022-09-11T20:14:05.485Z,94946.19
2022-09-11T20:16:32.702Z,94960.91
2022-09-11T20:19:06.638Z,94953.19
2022-09-11T20:21:35.463Z,94954.28
2022-09-11T20:24:06.250Z,94961.66
2022-09-11T20:26:34.304Z,94933.69
2022-09-11T20:29:10.630Z,94970.13
2022-09-11T20:31:46.558Z,94986.91
2022-09-11T20:34:16.392Z,94967.03
2022-09-11T20:36:43.284Z,94954.78
2022-09-11T20:39:13.794Z,94973.22
2022-09-11T20:41:40.973Z,94964.84
2022-09-11T20:44:08.612Z,94972.19
2022-09-11T20:46:35.645Z,94975.03
2022-09-11T20:49:03.441Z,94955.59
2022-09-11T20:51:30.981Z,94951.72
2022-09-11T20:53:57.754Z,94960.63
2022-09-11T20:56:24.769Z,94956.81
2022-09-11T20:58:51.947Z,94976.03
2022-09-11T21:01:21.848Z,94965.78
2022-09-11T21:03:56.931Z,94968.84
2022-09-11T21:06:26.671Z,94969.25
2022-09-11T21:08:55.930Z,94975.13
2022-09-11T21:11:25.008Z,94965.00
2022-09-11T21:13:52.108Z,94966.13
2022-09-11T21:16:19.936Z,94970.34
2022-09-11T21:18:52.642Z,94962.56
2022-09-11T21:21:20.670Z,94972.41
2022-09-11T21:23:48.220Z,94971.59
2022-09-11T21:26:16.862Z,94962.94
2022-09-11T21:28:44.319Z,94965.72
2022-09-11T21:31:11.695Z,94962.63
2022-09-11T21:33:38.986Z,94962.63
2022-09-11T21:36:06.251Z,94958.66
2022-09-11T21:38:33.931Z,94959.78
2022-09-11T21:41:03.461Z,94964.13
2022-09-11T21:43:30.763Z,94962.53
2022-09-11T21:45:57.492Z,94942.25
2022-09-11T21:48:24.322Z,94945.59
2022-09-11T21:50:51.622Z,94948.50
2022-09-11T21:53:19.107Z,94930.38
2022-09-11T21:55:47.140Z,94957.94
2022-09-11T21:58:20.126Z,94966.28
2022-09-11T22:00:48.588Z,94971.94
2022-09-11T22:03:17.246Z,94966.03
2022-09-11T22:05:45.926Z,94974.72
2022-09-11T22:08:14.614Z,94981.38
2022-09-11T22:10:42.960Z,94971.22
2022-09-11T22:13:12.893Z,94960.13
2022-09-11T22:15:42.258Z,94963.66
2022-09-11T22:18:09.490Z,94961.84
2022-09-11T22:20:40.995Z,94958.47
2022-09-11T22:23:13.378Z,94955.28
2022-09-11T22:25:40.882Z,94951.56
2022-09-11T22:28:08.484Z,94965.50
2022-09-11T22:30:35.362Z,94960.13
2022-09-11T22:33:02.367Z,94950.38
2022-09-11T22:35:29.224Z,94953.41
2022-09-11T22:37:55.922Z,94954.69
2022-09-11T22:40:22.588Z,94947.19
2022-09-11T22:42:49.951Z,94977.75
2022-09-11T22:45:17.197Z,94955.28
2022-09-11T22:47:43.911Z,94954.69
2022-09-11T22:50:10.928Z,94924.25
2022-09-11T22:52:37.899Z,94957.00
2022-09-11T22:55:06.380Z,94941.78
2022-09-11T22:57:36.000Z,94944.53
2022-09-11T23:00:05.795Z,94953.16
2022-09-11T23:02:32.484Z,94939.00
2022-09-11T23:05:17.728Z,94964.13
2022-09-11T23:07:44.914Z,94950.06
2022-09-11T23:10:11.932Z,94943.16
2022-09-11T23:12:38.902Z,94941.97
2022-09-11T23:15:06.714Z,94959.75
2022-09-11T23:17:33.681Z,94938.56
2022-09-11T23:20:00.711Z,94951.00
2022-09-11T23:22:27.478Z,94946.25
2022-09-11T23:24:54.198Z,94953.13
2022-09-11T23:27:21.240Z,94945.63
2022-09-11T23:29:47.896Z,94938.09
2022-09-11T23:32:14.713Z,94946.72
2022-09-11T23:34:41.413Z,94944.19
2022-09-11T23:37:08.174Z,94944.91
2022-09-11T23:39:35.017Z,94948.19
2022-09-11T23:42:01.801Z,94904.47
2022-09-11T23:44:28.509Z,94916.00
2022-09-11T23:46:55.215Z,94891.06
2022-09-11T23:49:21.909Z,94901.84
2022-09-11T23:51:50.233Z,94925.84
2022-09-11T23:54:16.910Z,94925.25
2022-09-11T23:56:44.461Z,94900.16
2022-09-11T23:59:11.801Z,94902.72
